sensor_id;sensor_type;location;lat;lon;timestamp;P1;durP1;ratioP1;P2;durP2;ratioP2
26953;SDS011;14508;50.924;11.600;2022-08-19T00:01:42;30.65;;;21.20;;
26953;SDS011;14508;50.924;11.600;2022-08-19T00:04:10;31.88;;;20.85;;
26953;SDS011;14508;50.924;11.600;2022-08-19T00:06:40;34.72;;;20.50;;
26953;SDS011;14508;50.924;11.600;2022-08-19T00:09:10;33.95;;;20.77;;
26953;SDS011;14508;50.924;11.600;2022-08-19T00:11:38;33.80;;;21.45;;
26953;SDS011;14508;50.924;11.600;2022-08-19T00:14:06;35.20;;;21.50;;
26953;SDS011;14508;50.924;11.600;2022-08-19T00:16:36;34.65;;;22.42;;
26953;SDS011;14508;50.924;11.600;2022-08-19T00:19:04;31.15;;;21.92;;
26953;SDS011;14508;50.924;11.600;2022-08-19T00:21:31;37.50;;;20.67;;
26953;SDS011;14508;50.924;11.600;2022-08-19T00:23:57;31.95;;;22.23;;
26953;SDS011;14508;50.924;11.600;2022-08-19T00:26:25;34.45;;;20.98;;
26953;SDS011;14508;50.924;11.600;2022-08-19T00:28:53;31.30;;;21.30;;
26953;SDS011;14508;50.924;11.600;2022-08-19T00:31:20;38.55;;;23.13;;
26953;SDS011;14508;50.924;11.600;2022-08-19T00:33:48;39.25;;;22.60;;
26953;SDS011;14508;50.924;11.600;2022-08-19T00:36:15;33.05;;;21.60;;
26953;SDS011;14508;50.924;11.600;2022-08-19T00:38:42;36.25;;;22.70;;
26953;SDS011;14508;50.924;11.600;2022-08-19T00:41:09;36.97;;;22.23;;
26953;SDS011;14508;50.924;11.600;2022-08-19T00:43:38;34.97;;;20.95;;
26953;SDS011;14508;50.924;11.600;2022-08-19T00:46:06;32.50;;;21.80;;
26953;SDS011;14508;50.924;11.600;2022-08-19T00:48:33;36.50;;;23.52;;
26953;SDS011;14508;50.924;11.600;2022-08-19T00:51:03;41.50;;;23.38;;
26953;SDS011;14508;50.924;11.600;2022-08-19T00:53:31;36.65;;;22.63;;
26953;SDS011;14508;50.924;11.600;2022-08-19T00:55:59;36.70;;;21.95;;
26953;SDS011;14508;50.924;11.600;2022-08-19T00:58:30;36.67;;;22.77;;
26953;SDS011;14508;50.924;11.600;2022-08-19T01:00:59;35.25;;;21.98;;
26953;SDS011;14508;50.924;11.600;2022-08-19T01:03:26;35.38;;;20.83;;
26953;SDS011;14508;50.924;11.600;2022-08-19T01:05:53;34.92;;;22.13;;
26953;SDS011;14508;50.924;11.600;2022-08-19T01:08:21;34.75;;;21.15;;
26953;SDS011;14508;50.924;11.600;2022-08-19T01:10:50;34.90;;;20.25;;
26953;SDS011;14508;50.924;11.600;2022-08-19T01:13:19;34.58;;;22.13;;
26953;SDS011;14508;50.924;11.600;2022-08-19T01:15:50;35.97;;;22.25;;
26953;SDS011;14508;50.924;11.600;2022-08-19T01:18:19;34.75;;;21.75;;
26953;SDS011;14508;50.924;11.600;2022-08-19T01:20:47;34.50;;;21.63;;
26953;SDS011;14508;50.924;11.600;2022-08-19T01:23:15;38.25;;;21.50;;
26953;SDS011;14508;50.924;11.600;2022-08-19T01:25:43;32.63;;;21.67;;
26953;SDS011;14508;50.924;11.600;2022-08-19T01:28:15;34.47;;;20.90;;
26953;SDS011;14508;50.924;11.600;2022-08-19T01:30:44;33.88;;;20.67;;
26953;SDS011;14508;50.924;11.600;2022-08-19T01:33:12;31.88;;;20.65;;
26953;SDS011;14508;50.924;11.600;2022-08-19T01:35:40;35.60;;;20.73;;
26953;SDS011;14508;50.924;11.600;2022-08-19T01:38:08;37.88;;;21.98;;
26953;SDS011;14508;50.924;11.600;2022-08-19T01:40:46;32.30;;;21.08;;
26953;SDS011;14508;50.924;11.600;2022-08-19T01:43:12;36.65;;;21.73;;
26953;SDS011;14508;50.924;11.600;2022-08-19T01:45:40;33.47;;;21.73;;
26953;SDS011;14508;50.924;11.600;2022-08-19T01:48:07;35.50;;;21.90;;
26953;SDS011;14508;50.924;11.600;2022-08-19T01:50:34;37.10;;;21.50;;
26953;SDS011;14508;50.924;11.600;2022-08-19T01:53:02;30.75;;;19.67;;
26953;SDS011;14508;50.924;11.600;2022-08-19T01:55:30;33.58;;;19.70;;
26953;SDS011;14508;50.924;11.600;2022-08-19T01:58:00;30.20;;;19.55;;
26953;SDS011;14508;50.924;11.600;2022-08-19T02:00:31;28.70;;;19.38;;
26953;SDS011;14508;50.924;11.600;2022-08-19T02:02:58;32.30;;;19.70;;
26953;SDS011;14508;50.924;11.600;2022-08-19T02:05:26;31.25;;;19.02;;
26953;SDS011;14508;50.924;11.600;2022-08-19T02:07:54;28.88;;;19.05;;
26953;SDS011;14508;50.924;11.600;2022-08-19T02:10:22;28.08;;;16.90;;
26953;SDS011;14508;50.924;11.600;2022-08-19T02:12:49;28.63;;;17.65;;
26953;SDS011;14508;50.924;11.600;2022-08-19T02:15:18;26.75;;;16.85;;
26953;SDS011;14508;50.924;11.600;2022-08-19T02:17:47;28.83;;;19.23;;
26953;SDS011;14508;50.924;11.600;2022-08-19T02:20:14;28.55;;;17.40;;
26953;SDS011;14508;50.924;11.600;2022-08-19T02:22:41;29.30;;;18.63;;
26953;SDS011;14508;50.924;11.600;2022-08-19T02:25:09;29.50;;;18.42;;
26953;SDS011;14508;50.924;11.600;2022-08-19T02:27:36;25.80;;;18.27;;
26953;SDS011;14508;50.924;11.600;2022-08-19T02:30:04;28.55;;;18.73;;
26953;SDS011;14508;50.924;11.600;2022-08-19T02:32:34;26.83;;;17.55;;
26953;SDS011;14508;50.924;11.600;2022-08-19T02:35:01;29.00;;;18.08;;
26953;SDS011;14508;50.924;11.600;2022-08-19T02:37:28;27.95;;;18.25;;
26953;SDS011;14508;50.924;11.600;2022-08-19T02:40:09;28.05;;;18.55;;
26953;SDS011;14508;50.924;11.600;2022-08-19T02:42:36;28.98;;;18.85;;
26953;SDS011;14508;50.924;11.600;2022-08-19T02:45:03;27.65;;;17.92;;
26953;SDS011;14508;50.924;11.600;2022-08-19T02:47:30;27.67;;;18.88;;
26953;SDS011;14508;50.924;11.600;2022-08-19T02:50:00;31.83;;;18.05;;
26953;SDS011;14508;50.924;11.600;2022-08-19T02:52:27;32.05;;;20.52;;
26953;SDS011;14508;50.924;11.600;2022-08-19T02:54:54;33.65;;;19.27;;
26953;SDS011;14508;50.924;11.600;2022-08-19T02:57:22;29.83;;;19.83;;
26953;SDS011;14508;50.924;11.600;2022-08-19T02:59:49;31.65;;;19.42;;
26953;SDS011;14508;50.924;11.600;2022-08-19T03:02:16;30.13;;;19.73;;
26953;SDS011;14508;50.924;11.600;2022-08-19T03:04:42;32.13;;;20.42;;
26953;SDS011;14508;50.924;11.600;2022-08-19T03:07:13;30.83;;;19.98;;
26953;SDS011;14508;50.924;11.600;2022-08-19T03:09:41;34.55;;;20.30;;
26953;SDS011;14508;50.924;11.600;2022-08-19T03:12:08;27.58;;;19.38;;
26953;SDS011;14508;50.924;11.600;2022-08-19T03:14:36;33.80;;;18.75;;
26953;SDS011;14508;50.924;11.600;2022-08-19T03:17:03;30.98;;;19.80;;
26953;SDS011;14508;50.924;11.600;2022-08-19T03:19:30;32.70;;;21.88;;
26953;SDS011;14508;50.924;11.600;2022-08-19T03:21:57;32.50;;;20.92;;
26953;SDS011;14508;50.924;11.600;2022-08-19T03:24:25;30.70;;;19.75;;
26953;SDS011;14508;50.924;11.600;2022-08-19T03:26:53;31.30;;;20.25;;
26953;SDS011;14508;50.924;11.600;2022-08-19T03:29:23;36.40;;;20.00;;
26953;SDS011;14508;50.924;11.600;2022-08-19T03:31:50;33.28;;;20.05;;
26953;SDS011;14508;50.924;11.600;2022-08-19T03:34:19;32.70;;;18.80;;
26953;SDS011;14508;50.924;11.600;2022-08-19T03:36:47;31.33;;;19.48;;
26953;SDS011;14508;50.924;11.600;2022-08-19T03:39:14;40.35;;;20.08;;
26953;SDS011;14508;50.924;11.600;2022-08-19T03:41:43;29.67;;;19.88;;
26953;SDS011;14508;50.924;11.600;2022-08-19T03:44:11;35.58;;;21.20;;
26953;SDS011;14508;50.924;11.600;2022-08-19T03:46:39;32.33;;;20.63;;
26953;SDS011;14508;50.924;11.600;2022-08-19T03:49:05;30.33;;;19.15;;
26953;SDS011;14508;50.924;11.600;2022-08-19T03:51:34;33.50;;;20.10;;
26953;SDS011;14508;50.924;11.600;2022-08-19T03:54:03;30.60;;;20.30;;
26953;SDS011;14508;50.924;11.600;2022-08-19T03:56:33;35.47;;;21.52;;
26953;SDS011;14508;50.924;11.600;2022-08-19T03:59:02;32.53;;;20.17;;
26953;SDS011;14508;50.924;11.600;2022-08-19T04:01:29;33.80;;;20.48;;
26953;SDS011;14508;50.924;11.600;2022-08-19T04:03:56;29.80;;;20.48;;
26953;SDS011;14508;50.924;11.600;2022-08-19T04:06:25;30.80;;;19.25;;
26953;SDS011;14508;50.924;11.600;2022-08-19T04:08:55;34.03;;;21.38;;
26953;SDS011;14508;50.924;11.600;2022-08-19T04:11:24;33.13;;;20.60;;
26953;SDS011;14508;50.924;11.600;2022-08-19T04:13:53;30.13;;;20.35;;
26953;SDS011;14508;50.924;11.600;2022-08-19T04:16:23;31.92;;;19.88;;
26953;SDS011;14508;50.924;11.600;2022-08-19T04:18:53;31.90;;;20.83;;
26953;SDS011;14508;50.924;11.600;2022-08-19T04:21:23;39.00;;;22.85;;
26953;SDS011;14508;50.924;11.600;2022-08-19T04:23:51;30.50;;;20.15;;
26953;SDS011;14508;50.924;11.600;2022-08-19T04:26:20;35.40;;;20.70;;
26953;SDS011;14508;50.924;11.600;2022-08-19T04:28:49;39.65;;;20.05;;
26953;SDS011;14508;50.924;11.600;2022-08-19T04:31:18;35.08;;;21.98;;
26953;SDS011;14508;50.924;11.600;2022-08-19T04:33:48;33.13;;;20.98;;
26953;SDS011;14508;50.924;11.600;2022-08-19T04:36:18;35.47;;;21.35;;
26953;SDS011;14508;50.924;11.600;2022-08-19T04:38:46;30.85;;;20.17;;
26953;SDS011;14508;50.924;11.600;2022-08-19T04:41:13;33.92;;;21.52;;
26953;SDS011;14508;50.924;11.600;2022-08-19T04:43:58;35.95;;;21.08;;
26953;SDS011;14508;50.924;11.600;2022-08-19T04:46:25;33.72;;;21.08;;
26953;SDS011;14508;50.924;11.600;2022-08-19T04:48:55;37.58;;;22.42;;
26953;SDS011;14508;50.924;11.600;2022-08-19T04:51:22;37.72;;;22.63;;
26953;SDS011;14508;50.924;11.600;2022-08-19T04:53:49;37.58;;;23.95;;
26953;SDS011;14508;50.924;11.600;2022-08-19T04:56:17;38.35;;;23.60;;
26953;SDS011;14508;50.924;11.600;2022-08-19T04:58:47;40.38;;;23.92;;
26953;SDS011;14508;50.924;11.600;2022-08-19T05:01:17;36.80;;;22.42;;
26953;SDS011;14508;50.924;11.600;2022-08-19T05:03:45;39.28;;;22.77;;
26953;SDS011;14508;50.924;11.600;2022-08-19T05:06:14;37.80;;;23.15;;
26953;SDS011;14508;50.924;11.600;2022-08-19T05:08:42;38.75;;;24.02;;
26953;SDS011;14508;50.924;11.600;2022-08-19T05:11:10;39.33;;;23.85;;
26953;SDS011;14508;50.924;11.600;2022-08-19T05:13:39;39.15;;;24.65;;
26953;SDS011;14508;50.924;11.600;2022-08-19T05:16:07;40.58;;;25.60;;
26953;SDS011;14508;50.924;11.600;2022-08-19T05:18:35;39.40;;;23.80;;
26953;SDS011;14508;50.924;11.600;2022-08-19T05:21:21;36.75;;;23.05;;
26953;SDS011;14508;50.924;11.600;2022-08-19T05:24:07;37.13;;;22.95;;
26953;SDS011;14508;50.924;11.600;2022-08-19T05:26:34;35.25;;;22.75;;
26953;SDS011;14508;50.924;11.600;2022-08-19T05:29:01;35.78;;;23.20;;
26953;SDS011;14508;50.924;11.600;2022-08-19T05:31:28;36.20;;;23.52;;
26953;SDS011;14508;50.924;11.600;2022-08-19T05:33:54;38.75;;;23.63;;
26953;SDS011;14508;50.924;11.600;2022-08-19T05:36:24;36.17;;;23.15;;
26953;SDS011;14508;50.924;11.600;2022-08-19T05:38:51;34.95;;;22.85;;
26953;SDS011;14508;50.924;11.600;2022-08-19T05:41:19;38.90;;;24.52;;
26953;SDS011;14508;50.924;11.600;2022-08-19T05:43:54;50.90;;;26.77;;
26953;SDS011;14508;50.924;11.600;2022-08-19T05:46:21;41.20;;;24.85;;
26953;SDS011;14508;50.924;11.600;2022-08-19T05:48:48;38.92;;;24.88;;
26953;SDS011;14508;50.924;11.600;2022-08-19T05:51:15;42.53;;;25.60;;
26953;SDS011;14508;50.924;11.600;2022-08-19T05:53:43;39.42;;;24.23;;
26953;SDS011;14508;50.924;11.600;2022-08-19T05:56:11;37.95;;;24.92;;
26953;SDS011;14508;50.924;11.600;2022-08-19T05:58:39;38.40;;;24.13;;
26953;SDS011;14508;50.924;11.600;2022-08-19T06:01:09;39.55;;;25.02;;
26953;SDS011;14508;50.924;11.600;2022-08-19T06:03:38;45.15;;;25.83;;
26953;SDS011;14508;50.924;11.600;2022-08-19T06:06:05;42.03;;;25.77;;
26953;SDS011;14508;50.924;11.600;2022-08-19T06:08:34;41.53;;;24.13;;
26953;SDS011;14508;50.924;11.600;2022-08-19T06:11:13;45.58;;;25.45;;
26953;SDS011;14508;50.924;11.600;2022-08-19T06:13:42;41.75;;;24.83;;
26953;SDS011;14508;50.924;11.600;2022-08-19T06:16:10;39.92;;;22.67;;
26953;SDS011;14508;50.924;11.600;2022-08-19T06:18:36;40.50;;;25.23;;
26953;SDS011;14508;50.924;11.600;2022-08-19T06:21:03;39.97;;;25.40;;
26953;SDS011;14508;50.924;11.600;2022-08-19T06:23:30;39.92;;;24.75;;
26953;SDS011;14508;50.924;11.600;2022-08-19T06:26:02;44.15;;;25.65;;
26953;SDS011;14508;50.924;11.600;2022-08-19T06:28:30;42.97;;;25.35;;
26953;SDS011;14508;50.924;11.600;2022-08-19T06:30:58;38.63;;;23.95;;
26953;SDS011;14508;50.924;11.600;2022-08-19T06:33:25;40.58;;;25.33;;
26953;SDS011;14508;50.924;11.600;2022-08-19T06:35:52;42.58;;;25.23;;
26953;SDS011;14508;50.924;11.600;2022-08-19T06:38:18;43.50;;;26.15;;
26953;SDS011;14508;50.924;11.600;2022-08-19T06:40:48;42.58;;;24.60;;
26953;SDS011;14508;50.924;11.600;2022-08-19T06:43:15;40.78;;;26.05;;
26953;SDS011;14508;50.924;11.600;2022-08-19T06:45:43;48.20;;;26.30;;
26953;SDS011;14508;50.924;11.600;2022-08-19T06:48:11;48.38;;;25.80;;
26953;SDS011;14508;50.924;11.600;2022-08-19T06:50:38;43.33;;;27.05;;
26953;SDS011;14508;50.924;11.600;2022-08-19T06:53:05;43.13;;;24.88;;
26953;SDS011;14508;50.924;11.600;2022-08-19T06:55:31;42.25;;;24.92;;
26953;SDS011;14508;50.924;11.600;2022-08-19T06:58:00;38.40;;;23.67;;
26953;SDS011;14508;50.924;11.600;2022-08-19T07:00:28;43.08;;;26.30;;
26953;SDS011;14508;50.924;11.600;2022-08-19T07:02:56;42.88;;;25.92;;
26953;SDS011;14508;50.924;11.600;2022-08-19T07:05:23;42.67;;;25.52;;
26953;SDS011;14508;50.924;11.600;2022-08-19T07:07:50;48.17;;;27.13;;
26953;SDS011;14508;50.924;11.600;2022-08-19T07:10:16;46.92;;;27.30;;
26953;SDS011;14508;50.924;11.600;2022-08-19T07:12:44;47.08;;;27.65;;
26953;SDS011;14508;50.924;11.600;2022-08-19T07:15:16;47.95;;;27.15;;
26953;SDS011;14508;50.924;11.600;2022-08-19T07:17:43;46.75;;;26.15;;
26953;SDS011;14508;50.924;11.600;2022-08-19T07:20:11;38.90;;;25.50;;
26953;SDS011;14508;50.924;11.600;2022-08-19T07:22:40;45.35;;;28.33;;
26953;SDS011;14508;50.924;11.600;2022-08-19T07:25:07;44.72;;;26.75;;
26953;SDS011;14508;50.924;11.600;2022-08-19T07:27:35;42.88;;;26.75;;
26953;SDS011;14508;50.924;11.600;2022-08-19T07:30:03;46.00;;;28.60;;
26953;SDS011;14508;50.924;11.600;2022-08-19T07:32:30;55.58;;;28.40;;
26953;SDS011;14508;50.924;11.600;2022-08-19T07:34:57;52.00;;;27.73;;
26953;SDS011;14508;50.924;11.600;2022-08-19T07:37:26;48.45;;;28.25;;
26953;SDS011;14508;50.924;11.600;2022-08-19T07:39:53;49.78;;;28.58;;
26953;SDS011;14508;50.924;11.600;2022-08-19T07:42:20;51.92;;;28.48;;
26953;SDS011;14508;50.924;11.600;2022-08-19T07:44:47;44.53;;;27.40;;
26953;SDS011;14508;50.924;11.600;2022-08-19T07:47:14;45.58;;;27.20;;
26953;SDS011;14508;50.924;11.600;2022-08-19T07:49:42;47.67;;;28.30;;
26953;SDS011;14508;50.924;11.600;2022-08-19T07:52:09;42.63;;;26.10;;
26953;SDS011;14508;50.924;11.600;2022-08-19T07:54:38;49.30;;;28.75;;
26953;SDS011;14508;50.924;11.600;2022-08-19T07:57:06;45.10;;;27.00;;
26953;SDS011;14508;50.924;11.600;2022-08-19T07:59:33;50.78;;;29.15;;
26953;SDS011;14508;50.924;11.600;2022-08-19T08:02:01;53.72;;;28.08;;
26953;SDS011;14508;50.924;11.600;2022-08-19T08:04:28;47.28;;;26.67;;
26953;SDS011;14508;50.924;11.600;2022-08-19T08:07:13;45.25;;;26.13;;
26953;SDS011;14508;50.924;11.600;2022-08-19T08:09:59;46.20;;;27.27;;
26953;SDS011;14508;50.924;11.600;2022-08-19T08:12:27;45.40;;;26.85;;
26953;SDS011;14508;50.924;11.600;2022-08-19T08:14:56;44.20;;;26.70;;
26953;SDS011;14508;50.924;11.600;2022-08-19T08:17:27;46.45;;;27.20;;
26953;SDS011;14508;50.924;11.600;2022-08-19T08:19:55;50.20;;;26.52;;
26953;SDS011;14508;50.924;11.600;2022-08-19T08:22:32;40.03;;;25.70;;
26953;SDS011;14508;50.924;11.600;2022-08-19T08:25:18;46.17;;;27.08;;
26953;SDS011;14508;50.924;11.600;2022-08-19T08:27:48;44.42;;;27.50;;
26953;SDS011;14508;50.924;11.600;2022-08-19T08:30:16;46.42;;;26.50;;
26953;SDS011;14508;50.924;11.600;2022-08-19T08:32:45;42.38;;;25.70;;
26953;SDS011;14508;50.924;11.600;2022-08-19T08:35:13;51.58;;;27.10;;
26953;SDS011;14508;50.924;11.600;2022-08-19T08:37:41;45.03;;;28.13;;
26953;SDS011;14508;50.924;11.600;2022-08-19T08:40:10;45.88;;;27.10;;
26953;SDS011;14508;50.924;11.600;2022-08-19T08:42:47;51.73;;;29.03;;
26953;SDS011;14508;50.924;11.600;2022-08-19T08:45:19;47.83;;;29.80;;
26953;SDS011;14508;50.924;11.600;2022-08-19T08:47:48;44.47;;;27.90;;
26953;SDS011;14508;50.924;11.600;2022-08-19T08:50:18;51.45;;;28.10;;
26953;SDS011;14508;50.924;11.600;2022-08-19T08:52:48;52.08;;;30.05;;
26953;SDS011;14508;50.924;11.600;2022-08-19T08:55:24;50.40;;;28.92;;
26953;SDS011;14508;50.924;11.600;2022-08-19T08:57:55;48.78;;;28.48;;
26953;SDS011;14508;50.924;11.600;2022-08-19T09:00:26;53.83;;;29.67;;
26953;SDS011;14508;50.924;11.600;2022-08-19T09:05:52;50.15;;;28.88;;
26953;SDS011;14508;50.924;11.600;2022-08-19T09:08:27;51.78;;;27.90;;
26953;SDS011;14508;50.924;11.600;2022-08-19T09:11:06;49.58;;;30.10;;
26953;SDS011;14508;50.924;11.600;2022-08-19T09:13:37;53.08;;;27.63;;
26953;SDS011;14508;50.924;11.600;2022-08-19T09:16:11;45.10;;;28.27;;
26953;SDS011;14508;50.924;11.600;2022-08-19T09:18:42;40.58;;;24.98;;
26953;SDS011;14508;50.924;11.600;2022-08-19T09:21:11;47.60;;;24.08;;
26953;SDS011;14508;50.924;11.600;2022-08-19T09:23:38;43.28;;;25.25;;
26953;SDS011;14508;50.924;11.600;2022-08-19T09:26:09;43.78;;;25.05;;
26953;SDS011;14508;50.924;11.600;2022-08-19T09:28:39;41.05;;;23.80;;
26953;SDS011;14508;50.924;11.600;2022-08-19T09:31:08;38.95;;;23.73;;
26953;SDS011;14508;50.924;11.600;2022-08-19T09:33:36;37.42;;;22.63;;
26953;SDS011;14508;50.924;11.600;2022-08-19T09:36:09;40.45;;;22.58;;
26953;SDS011;14508;50.924;11.600;2022-08-19T09:38:38;38.35;;;24.30;;
26953;SDS011;14508;50.924;11.600;2022-08-19T09:41:06;42.25;;;24.98;;
26953;SDS011;14508;50.924;11.600;2022-08-19T09:43:38;42.85;;;25.75;;
26953;SDS011;14508;50.924;11.600;2022-08-19T09:46:06;44.55;;;23.15;;
26953;SDS011;14508;50.924;11.600;2022-08-19T09:48:34;35.78;;;22.35;;
26953;SDS011;14508;50.924;11.600;2022-08-19T09:51:02;38.65;;;23.88;;
26953;SDS011;14508;50.924;11.600;2022-08-19T09:53:30;33.83;;;21.17;;
26953;SDS011;14508;50.924;11.600;2022-08-19T09:55:56;35.28;;;21.63;;
26953;SDS011;14508;50.924;11.600;2022-08-19T09:58:24;39.42;;;22.05;;
26953;SDS011;14508;50.924;11.600;2022-08-19T10:00:52;33.83;;;20.80;;
26953;SDS011;14508;50.924;11.600;2022-08-19T10:03:19;33.35;;;20.55;;
26953;SDS011;14508;50.924;11.600;2022-08-19T10:05:46;30.33;;;19.15;;
26953;SDS011;14508;50.924;11.600;2022-08-19T10:08:16;32.00;;;19.77;;
26953;SDS011;14508;50.924;11.600;2022-08-19T10:10:46;30.10;;;19.02;;
26953;SDS011;14508;50.924;11.600;2022-08-19T10:13:13;30.38;;;19.33;;
26953;SDS011;14508;50.924;11.600;2022-08-19T10:15:43;26.42;;;18.98;;
26953;SDS011;14508;50.924;11.600;2022-08-19T10:18:10;30.90;;;19.75;;
26953;SDS011;14508;50.924;11.600;2022-08-19T10:20:37;30.17;;;18.13;;
26953;SDS011;14508;50.924;11.600;2022-08-19T10:23:03;23.63;;;15.70;;
26953;SDS011;14508;50.924;11.600;2022-08-19T10:25:31;28.20;;;17.38;;
26953;SDS011;14508;50.924;11.600;2022-08-19T10:27:59;24.30;;;17.88;;
26953;SDS011;14508;50.924;11.600;2022-08-19T10:30:25;29.23;;;15.90;;
26953;SDS011;14508;50.924;11.600;2022-08-19T10:32:54;24.83;;;16.85;;
26953;SDS011;14508;50.924;11.600;2022-08-19T10:35:20;22.25;;;16.35;;
26953;SDS011;14508;50.924;11.600;2022-08-19T10:37:47;21.83;;;14.60;;
26953;SDS011;14508;50.924;11.600;2022-08-19T10:40:14;17.20;;;10.60;;
26953;SDS011;14508;50.924;11.600;2022-08-19T10:42:41;17.30;;;10.75;;
26953;SDS011;14508;50.924;11.600;2022-08-19T10:45:08;15.98;;;9.32;;
26953;SDS011;14508;50.924;11.600;2022-08-19T10:47:36;14.32;;;8.73;;
26953;SDS011;14508;50.924;11.600;2022-08-19T10:50:04;11.68;;;8.20;;
26953;SDS011;14508;50.924;11.600;2022-08-19T10:52:50;10.50;;;8.80;;
26953;SDS011;14508;50.924;11.600;2022-08-19T10:55:18;13.07;;;8.10;;
26953;SDS011;14508;50.924;11.600;2022-08-19T10:58:09;12.52;;;8.63;;
26953;SDS011;14508;50.924;11.600;2022-08-19T11:00:37;10.02;;;7.97;;
26953;SDS011;14508;50.924;11.600;2022-08-19T11:03:05;12.95;;;8.93;;
26953;SDS011;14508;50.924;11.600;2022-08-19T11:05:33;16.10;;;8.63;;
26953;SDS011;14508;50.924;11.600;2022-08-19T11:08:00;13.93;;;8.65;;
26953;SDS011;14508;50.924;11.600;2022-08-19T11:10:27;11.07;;;7.65;;
26953;SDS011;14508;50.924;11.600;2022-08-19T11:12:53;9.60;;;7.95;;
26953;SDS011;14508;50.924;11.600;2022-08-19T11:15:20;8.68;;;7.22;;
26953;SDS011;14508;50.924;11.600;2022-08-19T11:17:48;9.70;;;7.75;;
26953;SDS011;14508;50.924;11.600;2022-08-19T11:20:15;10.82;;;7.32;;
26953;SDS011;14508;50.924;11.600;2022-08-19T11:22:43;10.25;;;7.43;;
26953;SDS011;14508;50.924;11.600;2022-08-19T11:25:10;9.63;;;7.10;;
26953;SDS011;14508;50.924;11.600;2022-08-19T11:27:38;13.70;;;7.28;;
26953;SDS011;14508;50.924;11.600;2022-08-19T11:30:07;15.00;;;7.55;;
26953;SDS011;14508;50.924;11.600;2022-08-19T11:32:35;8.95;;;7.45;;
26953;SDS011;14508;50.924;11.600;2022-08-19T11:35:02;11.57;;;8.00;;
26953;SDS011;14508;50.924;11.600;2022-08-19T11:37:29;14.20;;;8.10;;
26953;SDS011;14508;50.924;11.600;2022-08-19T11:39:58;10.52;;;7.88;;
26953;SDS011;14508;50.924;11.600;2022-08-19T11:42:25;15.23;;;8.30;;
26953;SDS011;14508;50.924;11.600;2022-08-19T11:45:10;15.75;;;9.23;;
26953;SDS011;14508;50.924;11.600;2022-08-19T11:47:37;11.55;;;8.27;;
26953;SDS011;14508;50.924;11.600;2022-08-19T11:50:04;13.07;;;9.18;;
26953;SDS011;14508;50.924;11.600;2022-08-19T11:52:31;12.88;;;8.75;;
26953;SDS011;14508;50.924;11.600;2022-08-19T11:54:59;15.60;;;9.48;;
26953;SDS011;14508;50.924;11.600;2022-08-19T11:57:26;11.98;;;8.38;;
26953;SDS011;14508;50.924;11.600;2022-08-19T11:59:52;12.20;;;8.52;;
26953;SDS011;14508;50.924;11.600;2022-08-19T12:02:19;12.32;;;8.43;;
26953;SDS011;14508;50.924;11.600;2022-08-19T12:04:46;12.48;;;8.77;;
26953;SDS011;14508;50.924;11.600;2022-08-19T12:07:13;11.18;;;8.63;;
26953;SDS011;14508;50.924;11.600;2022-08-19T12:09:40;14.15;;;8.45;;
26953;SDS011;14508;50.924;11.600;2022-08-19T12:12:09;13.80;;;8.73;;
26953;SDS011;14508;50.924;11.600;2022-08-19T12:14:35;11.82;;;8.57;;
26953;SDS011;14508;50.924;11.600;2022-08-19T12:17:02;13.20;;;9.27;;
26953;SDS011;14508;50.924;11.600;2022-08-19T12:19:32;13.82;;;9.40;;
26953;SDS011;14508;50.924;11.600;2022-08-19T12:22:00;13.77;;;8.32;;
26953;SDS011;14508;50.924;11.600;2022-08-19T12:24:29;14.25;;;8.60;;
26953;SDS011;14508;50.924;11.600;2022-08-19T12:26:57;15.55;;;9.88;;
26953;SDS011;14508;50.924;11.600;2022-08-19T12:29:27;12.75;;;9.68;;
26953;SDS011;14508;50.924;11.600;2022-08-19T12:31:55;11.02;;;9.68;;
26953;SDS011;14508;50.924;11.600;2022-08-19T12:34:26;13.93;;;10.15;;
26953;SDS011;14508;50.924;11.600;2022-08-19T12:36:55;17.48;;;9.95;;
26953;SDS011;14508;50.924;11.600;2022-08-19T12:39:22;19.15;;;10.00;;
26953;SDS011;14508;50.924;11.600;2022-08-19T12:41:49;15.55;;;9.65;;
26953;SDS011;14508;50.924;11.600;2022-08-19T12:44:16;17.50;;;10.73;;
26953;SDS011;14508;50.924;11.600;2022-08-19T12:46:44;15.05;;;10.68;;
26953;SDS011;14508;50.924;11.600;2022-08-19T12:49:12;18.27;;;11.25;;
26953;SDS011;14508;50.924;11.600;2022-08-19T12:51:39;15.55;;;11.00;;
26953;SDS011;14508;50.924;11.600;2022-08-19T12:54:07;16.75;;;11.02;;
26953;SDS011;14508;50.924;11.600;2022-08-19T12:56:34;14.77;;;10.65;;
26953;SDS011;14508;50.924;11.600;2022-08-19T12:59:02;19.42;;;11.63;;
26953;SDS011;14508;50.924;11.600;2022-08-19T13:01:30;18.08;;;11.85;;
26953;SDS011;14508;50.924;11.600;2022-08-19T13:03:59;17.02;;;11.93;;
26953;SDS011;14508;50.924;11.600;2022-08-19T13:06:26;17.45;;;12.23;;
26953;SDS011;14508;50.924;11.600;2022-08-19T13:08:53;17.20;;;12.00;;
26953;SDS011;14508;50.924;11.600;2022-08-19T13:11:20;16.35;;;12.05;;
26953;SDS011;14508;50.924;11.600;2022-08-19T13:13:49;16.73;;;11.38;;
26953;SDS011;14508;50.924;11.600;2022-08-19T13:16:17;16.98;;;11.93;;
26953;SDS011;14508;50.924;11.600;2022-08-19T13:18:45;20.77;;;10.90;;
26953;SDS011;14508;50.924;11.600;2022-08-19T13:21:14;18.40;;;10.95;;
26953;SDS011;14508;50.924;11.600;2022-08-19T13:23:41;17.27;;;11.10;;
26953;SDS011;14508;50.924;11.600;2022-08-19T13:26:09;16.73;;;10.50;;
26953;SDS011;14508;50.924;11.600;2022-08-19T13:28:38;16.67;;;10.98;;
26953;SDS011;14508;50.924;11.600;2022-08-19T13:31:24;17.23;;;11.02;;
26953;SDS011;14508;50.924;11.600;2022-08-19T13:34:09;18.10;;;10.85;;
26953;SDS011;14508;50.924;11.600;2022-08-19T13:36:38;23.02;;;11.05;;
26953;SDS011;14508;50.924;11.600;2022-08-19T13:39:06;15.23;;;10.35;;
26953;SDS011;14508;50.924;11.600;2022-08-19T13:41:34;14.20;;;10.30;;
26953;SDS011;14508;50.924;11.600;2022-08-19T13:44:01;13.90;;;10.65;;
26953;SDS011;14508;50.924;11.600;2022-08-19T13:46:28;13.25;;;9.43;;
26953;SDS011;14508;50.924;11.600;2022-08-19T13:48:55;14.05;;;10.27;;
26953;SDS011;14508;50.924;11.600;2022-08-19T13:51:22;14.50;;;9.55;;
26953;SDS011;14508;50.924;11.600;2022-08-19T13:53:50;22.88;;;9.88;;
26953;SDS011;14508;50.924;11.600;2022-08-19T13:56:18;12.50;;;9.32;;
26953;SDS011;14508;50.924;11.600;2022-08-19T13:58:46;13.00;;;9.38;;
26953;SDS011;14508;50.924;11.600;2022-08-19T14:01:17;14.50;;;9.38;;
26953;SDS011;14508;50.924;11.600;2022-08-19T14:03:45;13.68;;;10.65;;
26953;SDS011;14508;50.924;11.600;2022-08-19T14:06:12;18.05;;;10.98;;
26953;SDS011;14508;50.924;11.600;2022-08-19T14:08:39;14.68;;;10.15;;
26953;SDS011;14508;50.924;11.600;2022-08-19T14:11:08;18.33;;;11.20;;
26953;SDS011;14508;50.924;11.600;2022-08-19T14:13:35;15.50;;;11.63;;
26953;SDS011;14508;50.924;11.600;2022-08-19T14:16:05;17.02;;;10.82;;
26953;SDS011;14508;50.924;11.600;2022-08-19T14:18:33;14.65;;;10.43;;
26953;SDS011;14508;50.924;11.600;2022-08-19T14:21:00;17.15;;;10.73;;
26953;SDS011;14508;50.924;11.600;2022-08-19T14:23:28;13.57;;;10.05;;